sensor_id;sensor_type;location;lat;lon;timestamp;P1;durP1;ratioP1;P2;durP2;ratioP2
62535;SDS011;63050;47.514;18.920;2023-04-24T00:02:01;7.90;;;5.30;;
62535;SDS011;63050;47.514;18.920;2023-04-24T00:07:04;6.40;;;5.30;;
62535;SDS011;63050;47.514;18.920;2023-04-24T00:12:07;6.40;;;5.10;;
62535;SDS011;63050;47.514;18.920;2023-04-24T00:17:09;10.30;;;5.70;;
62535;SDS011;63050;47.514;18.920;2023-04-24T00:22:11;7.30;;;5.00;;
62535;SDS011;63050;47.514;18.920;2023-04-24T00:27:14;8.50;;;5.70;;
62535;SDS011;63050;47.514;18.920;2023-04-24T00:32:15;7.60;;;5.10;;
62535;SDS011;63050;47.514;18.920;2023-04-24T00:37:16;9.00;;;5.90;;
62535;SDS011;63050;47.514;18.920;2023-04-24T00:42:19;7.10;;;5.30;;
62535;SDS011;63050;47.514;18.920;2023-04-24T00:47:21;8.20;;;5.90;;
62535;SDS011;63050;47.514;18.920;2023-04-24T00:52:23;6.30;;;5.10;;
62535;SDS011;63050;47.514;18.920;2023-04-24T00:57:25;7.90;;;5.20;;
62535;SDS011;63050;47.514;18.920;2023-04-24T01:02:27;7.20;;;5.20;;
62535;SDS011;63050;47.514;18.920;2023-04-24T01:07:30;6.30;;;4.80;;
62535;SDS011;63050;47.514;18.920;2023-04-24T01:12:32;5.80;;;4.90;;
62535;SDS011;63050;47.514;18.920;2023-04-24T01:17:34;7.50;;;5.40;;
62535;SDS011;63050;47.514;18.920;2023-04-24T01:22:36;6.70;;;5.20;;
62535;SDS011;63050;47.514;18.920;2023-04-24T01:27:38;6.60;;;5.00;;
62535;SDS011;63050;47.514;18.920;2023-04-24T01:32:39;9.30;;;5.70;;
62535;SDS011;63050;47.514;18.920;2023-04-24T01:37:41;6.50;;;5.60;;
62535;SDS011;63050;47.514;18.920;2023-04-24T01:42:43;9.10;;;5.30;;
62535;SDS011;63050;47.514;18.920;2023-04-24T01:47:46;9.00;;;5.50;;
62535;SDS011;63050;47.514;18.920;2023-04-24T01:52:48;7.40;;;5.40;;
62535;SDS011;63050;47.514;18.920;2023-04-24T01:57:50;6.30;;;5.50;;
62535;SDS011;63050;47.514;18.920;2023-04-24T02:02:53;6.70;;;5.60;;
62535;SDS011;63050;47.514;18.920;2023-04-24T02:07:55;7.40;;;5.50;;
62535;SDS011;63050;47.514;18.920;2023-04-24T02:12:57;8.00;;;6.10;;
62535;SDS011;63050;47.514;18.920;2023-04-24T02:18:00;7.30;;;5.60;;
62535;SDS011;63050;47.514;18.920;2023-04-24T02:23:02;6.20;;;5.50;;
62535;SDS011;63050;47.514;18.920;2023-04-24T02:28:03;7.80;;;5.60;;
62535;SDS011;63050;47.514;18.920;2023-04-24T02:33:07;7.20;;;4.80;;
62535;SDS011;63050;47.514;18.920;2023-04-24T02:38:09;6.50;;;4.60;;
62535;SDS011;63050;47.514;18.920;2023-04-24T02:43:10;8.20;;;5.30;;
62535;SDS011;63050;47.514;18.920;2023-04-24T02:48:12;6.10;;;4.30;;
62535;SDS011;63050;47.514;18.920;2023-04-24T02:53:14;8.80;;;4.50;;
62535;SDS011;63050;47.514;18.920;2023-04-24T02:58:16;5.50;;;4.40;;
62535;SDS011;63050;47.514;18.920;2023-04-24T03:03:21;5.10;;;4.50;;
62535;SDS011;63050;47.514;18.920;2023-04-24T03:08:22;6.40;;;4.30;;
62535;SDS011;63050;47.514;18.920;2023-04-24T03:13:24;5.40;;;4.10;;
62535;SDS011;63050;47.514;18.920;2023-04-24T03:18:26;5.40;;;4.60;;
62535;SDS011;63050;47.514;18.920;2023-04-24T03:23:27;4.90;;;4.30;;
62535;SDS011;63050;47.514;18.920;2023-04-24T03:28:29;5.00;;;4.30;;
62535;SDS011;63050;47.514;18.920;2023-04-24T03:33:37;4.80;;;4.30;;
62535;SDS011;63050;47.514;18.920;2023-04-24T03:38:38;5.30;;;4.20;;
62535;SDS011;63050;47.514;18.920;2023-04-24T03:44:05;6.60;;;3.90;;
62535;SDS011;63050;47.514;18.920;2023-04-24T03:49:07;5.00;;;4.50;;
62535;SDS011;63050;47.514;18.920;2023-04-24T03:54:10;4.80;;;3.80;;
62535;SDS011;63050;47.514;18.920;2023-04-24T03:59:13;7.20;;;4.50;;
62535;SDS011;63050;47.514;18.920;2023-04-24T04:04:16;9.10;;;4.40;;
62535;SDS011;63050;47.514;18.920;2023-04-24T04:09:19;7.60;;;3.90;;
62535;SDS011;63050;47.514;18.920;2023-04-24T04:14:21;5.90;;;4.50;;
62535;SDS011;63050;47.514;18.920;2023-04-24T04:19:23;6.30;;;4.40;;
62535;SDS011;63050;47.514;18.920;2023-04-24T04:24:25;5.50;;;4.80;;
62535;SDS011;63050;47.514;18.920;2023-04-24T04:29:27;6.90;;;4.90;;
62535;SDS011;63050;47.514;18.920;2023-04-24T04:34:30;6.10;;;5.30;;
62535;SDS011;63050;47.514;18.920;2023-04-24T04:39:32;6.80;;;5.00;;
62535;SDS011;63050;47.514;18.920;2023-04-24T04:44:36;9.80;;;6.00;;
62535;SDS011;63050;47.514;18.920;2023-04-24T04:49:40;8.00;;;5.50;;
62535;SDS011;63050;47.514;18.920;2023-04-24T04:54:47;8.80;;;5.20;;
62535;SDS011;63050;47.514;18.920;2023-04-24T04:59:49;6.80;;;5.70;;
62535;SDS011;63050;47.514;18.920;2023-04-24T05:04:57;7.30;;;5.10;;
62535;SDS011;63050;47.514;18.920;2023-04-24T05:09:59;7.00;;;5.00;;
62535;SDS011;63050;47.514;18.920;2023-04-24T05:15:01;11.30;;;5.70;;
62535;SDS011;63050;47.514;18.920;2023-04-24T05:20:04;7.50;;;5.80;;
62535;SDS011;63050;47.514;18.920;2023-04-24T05:25:07;6.20;;;5.30;;
62535;SDS011;63050;47.514;18.920;2023-04-24T05:30:14;8.40;;;5.30;;
62535;SDS011;63050;47.514;18.920;2023-04-24T05:35:16;11.10;;;7.00;;
62535;SDS011;63050;47.514;18.920;2023-04-24T05:40:17;8.30;;;6.30;;
62535;SDS011;63050;47.514;18.920;2023-04-24T05:45:18;13.10;;;6.30;;
62535;SDS011;63050;47.514;18.920;2023-04-24T05:50:20;8.80;;;6.20;;
62535;SDS011;63050;47.514;18.920;2023-04-24T05:55:22;7.70;;;6.60;;
62535;SDS011;63050;47.514;18.920;2023-04-24T06:00:25;9.50;;;6.60;;
62535;SDS011;63050;47.514;18.920;2023-04-24T06:05:32;9.30;;;7.60;;
62535;SDS011;63050;47.514;18.920;2023-04-24T06:10:33;12.70;;;6.70;;
62535;SDS011;63050;47.514;18.920;2023-04-24T06:15:35;8.10;;;6.20;;
62535;SDS011;63050;47.514;18.920;2023-04-24T06:20:42;7.30;;;6.30;;
62535;SDS011;63050;47.514;18.920;2023-04-24T06:25:44;7.10;;;6.40;;
62535;SDS011;63050;47.514;18.920;2023-04-24T06:30:46;9.50;;;7.00;;
62535;SDS011;63050;47.514;18.920;2023-04-24T06:35:47;18.70;;;7.50;;
62535;SDS011;63050;47.514;18.920;2023-04-24T06:40:49;8.50;;;6.20;;
62535;SDS011;63050;47.514;18.920;2023-04-24T06:45:50;8.60;;;7.30;;
62535;SDS011;63050;47.514;18.920;2023-04-24T06:50:52;7.80;;;7.00;;
62535;SDS011;63050;47.514;18.920;2023-04-24T06:55:54;9.20;;;7.00;;
62535;SDS011;63050;47.514;18.920;2023-04-24T07:00:56;8.50;;;6.90;;
62535;SDS011;63050;47.514;18.920;2023-04-24T07:05:57;10.90;;;7.50;;
62535;SDS011;63050;47.514;18.920;2023-04-24T07:10:59;9.30;;;6.60;;
62535;SDS011;63050;47.514;18.920;2023-04-24T07:16:01;9.00;;;7.10;;
62535;SDS011;63050;47.514;18.920;2023-04-24T07:21:03;9.70;;;7.00;;
62535;SDS011;63050;47.514;18.920;2023-04-24T07:26:05;16.60;;;7.50;;
62535;SDS011;63050;47.514;18.920;2023-04-24T07:31:07;10.70;;;7.60;;
62535;SDS011;63050;47.514;18.920;2023-04-24T07:36:09;10.80;;;7.60;;
62535;SDS011;63050;47.514;18.920;2023-04-24T07:41:16;7.10;;;6.30;;
62535;SDS011;63050;47.514;18.920;2023-04-24T07:46:17;7.60;;;6.10;;
62535;SDS011;63050;47.514;18.920;2023-04-24T07:51:20;6.40;;;5.50;;
62535;SDS011;63050;47.514;18.920;2023-04-24T07:56:21;7.40;;;5.80;;
62535;SDS011;63050;47.514;18.920;2023-04-24T08:01:23;8.80;;;5.70;;
62535;SDS011;63050;47.514;18.920;2023-04-24T08:06:25;14.60;;;5.80;;
62535;SDS011;63050;47.514;18.920;2023-04-24T08:11:30;7.80;;;5.90;;
62535;SDS011;63050;47.514;18.920;2023-04-24T08:16:32;12.00;;;6.70;;
62535;SDS011;63050;47.514;18.920;2023-04-24T08:21:34;9.80;;;6.00;;
62535;SDS011;63050;47.514;18.920;2023-04-24T08:26:36;8.30;;;6.20;;
62535;SDS011;63050;47.514;18.920;2023-04-24T08:31:37;9.50;;;7.40;;
62535;SDS011;63050;47.514;18.920;2023-04-24T08:36:38;13.60;;;7.10;;
62535;SDS011;63050;47.514;18.920;2023-04-24T08:41:41;14.20;;;6.90;;
62535;SDS011;63050;47.514;18.920;2023-04-24T08:46:43;7.60;;;6.50;;
62535;SDS011;63050;47.514;18.920;2023-04-24T08:51:46;9.00;;;7.00;;
62535;SDS011;63050;47.514;18.920;2023-04-24T08:56:48;7.70;;;6.10;;
62535;SDS011;63050;47.514;18.920;2023-04-24T09:01:50;8.50;;;5.40;;
62535;SDS011;63050;47.514;18.920;2023-04-24T09:06:56;8.10;;;6.40;;
62535;SDS011;63050;47.514;18.920;2023-04-24T09:11:58;8.80;;;5.20;;
62535;SDS011;63050;47.514;18.920;2023-04-24T09:17:00;8.00;;;6.50;;
62535;SDS011;63050;47.514;18.920;2023-04-24T09:22:06;10.20;;;6.10;;
62535;SDS011;63050;47.514;18.920;2023-04-24T09:27:08;10.00;;;5.30;;
62535;SDS011;63050;47.514;18.920;2023-04-24T09:32:22;8.40;;;6.00;;
62535;SDS011;63050;47.514;18.920;2023-04-24T09:37:29;6.30;;;5.10;;
62535;SDS011;63050;47.514;18.920;2023-04-24T09:47:36;8.40;;;6.00;;
62535;SDS011;63050;47.514;18.920;2023-04-24T09:53:01;15.20;;;7.10;;
62535;SDS011;63050;47.514;18.920;2023-04-24T09:58:00;7.00;;;6.20;;
62535;SDS011;63050;47.514;18.920;2023-04-24T10:08:08;9.80;;;6.80;;
62535;SDS011;63050;47.514;18.920;2023-04-24T10:13:11;11.10;;;6.50;;
62535;SDS011;63050;47.514;18.920;2023-04-24T10:18:14;7.50;;;6.10;;
62535;SDS011;63050;47.514;18.920;2023-04-24T10:23:17;7.90;;;6.40;;
62535;SDS011;63050;47.514;18.920;2023-04-24T10:28:20;11.80;;;7.30;;
62535;SDS011;63050;47.514;18.920;2023-04-24T10:33:22;7.60;;;6.80;;
62535;SDS011;63050;47.514;18.920;2023-04-24T10:38:27;8.40;;;6.70;;
62535;SDS011;63050;47.514;18.920;2023-04-24T10:43:29;7.40;;;6.30;;
62535;SDS011;63050;47.514;18.920;2023-04-24T10:48:31;7.60;;;6.10;;
62535;SDS011;63050;47.514;18.920;2023-04-24T10:53:34;7.50;;;6.40;;
62535;SDS011;63050;47.514;18.920;2023-04-24T10:58:42;12.70;;;7.10;;
62535;SDS011;63050;47.514;18.920;2023-04-24T11:03:56;7.90;;;6.50;;
62535;SDS011;63050;47.514;18.920;2023-04-24T11:09:03;7.70;;;5.40;;
62535;SDS011;63050;47.514;18.920;2023-04-24T11:14:08;8.10;;;6.70;;
62535;SDS011;63050;47.514;18.920;2023-04-24T11:34:54;4.00;;;2.70;;
62535;SDS011;63050;47.514;18.920;2023-04-24T11:39:58;4.20;;;2.70;;
62535;SDS011;63050;47.514;18.920;2023-04-24T11:44:59;5.40;;;2.80;;
62535;SDS011;63050;47.514;18.920;2023-04-24T11:50:03;7.30;;;3.50;;
62535;SDS011;63050;47.514;18.920;2023-04-24T11:55:06;4.10;;;2.50;;
62535;SDS011;63050;47.514;18.920;2023-04-24T12:00:15;5.20;;;3.00;;
62535;SDS011;63050;47.514;18.920;2023-04-24T12:05:21;4.70;;;2.90;;
62535;SDS011;63050;47.514;18.920;2023-04-24T12:10:23;5.40;;;2.60;;
62535;SDS011;63050;47.514;18.920;2023-04-24T12:15:26;6.00;;;2.80;;
62535;SDS011;63050;47.514;18.920;2023-04-24T12:20:29;8.50;;;3.20;;
62535;SDS011;63050;47.514;18.920;2023-04-24T12:25:32;6.50;;;3.10;;
62535;SDS011;63050;47.514;18.920;2023-04-24T12:30:43;4.10;;;2.60;;
62535;SDS011;63050;47.514;18.920;2023-04-24T12:35:51;7.10;;;3.30;;
62535;SDS011;63050;47.514;18.920;2023-04-24T12:41:04;6.20;;;2.90;;
62535;SDS011;63050;47.514;18.920;2023-04-24T12:46:06;5.10;;;2.90;;
62535;SDS011;63050;47.514;18.920;2023-04-24T12:51:08;6.50;;;2.80;;
62535;SDS011;63050;47.514;18.920;2023-04-24T12:56:10;5.60;;;2.70;;
62535;SDS011;63050;47.514;18.920;2023-04-24T13:01:11;8.90;;;3.70;;
62535;SDS011;63050;47.514;18.920;2023-04-24T13:06:12;4.10;;;3.00;;
62535;SDS011;63050;47.514;18.920;2023-04-24T13:11:14;4.50;;;3.00;;
62535;SDS011;63050;47.514;18.920;2023-04-24T13:16:15;5.30;;;3.20;;
62535;SDS011;63050;47.514;18.920;2023-04-24T13:21:16;5.80;;;3.30;;
62535;SDS011;63050;47.514;18.920;2023-04-24T13:26:18;4.90;;;3.40;;
62535;SDS011;63050;47.514;18.920;2023-04-24T13:31:19;4.90;;;3.30;;
62535;SDS011;63050;47.514;18.920;2023-04-24T13:36:21;6.50;;;3.50;;
62535;SDS011;63050;47.514;18.920;2023-04-24T13:41:22;5.20;;;3.50;;
62535;SDS011;63050;47.514;18.920;2023-04-24T13:46:23;5.70;;;3.70;;
62535;SDS011;63050;47.514;18.920;2023-04-24T13:51:26;7.20;;;4.20;;
62535;SDS011;63050;47.514;18.920;2023-04-24T13:56:28;8.70;;;4.90;;
62535;SDS011;63050;47.514;18.920;2023-04-24T14:01:29;6.50;;;4.90;;
62535;SDS011;63050;47.514;18.920;2023-04-24T14:06:30;7.80;;;4.60;;
62535;SDS011;63050;47.514;18.920;2023-04-24T14:11:32;7.70;;;5.00;;
62535;SDS011;63050;47.514;18.920;2023-04-24T14:16:34;8.00;;;5.40;;
62535;SDS011;63050;47.514;18.920;2023-04-24T14:21:36;6.40;;;5.50;;
62535;SDS011;63050;47.514;18.920;2023-04-24T14:26:38;7.70;;;6.40;;
62535;SDS011;63050;47.514;18.920;2023-04-24T14:31:40;6.40;;;5.40;;
62535;SDS011;63050;47.514;18.920;2023-04-24T14:36:43;6.00;;;4.40;;
62535;SDS011;63050;47.514;18.920;2023-04-24T14:41:44;6.00;;;4.60;;
62535;SDS011;63050;47.514;18.920;2023-04-24T14:46:45;5.10;;;4.10;;
62535;SDS011;63050;47.514;18.920;2023-04-24T14:51:46;5.80;;;4.60;;
62535;SDS011;63050;47.514;18.920;2023-04-24T14:56:48;5.70;;;4.90;;
62535;SDS011;63050;47.514;18.920;2023-04-24T15:01:50;7.10;;;4.70;;
62535;SDS011;63050;47.514;18.920;2023-04-24T15:06:53;6.90;;;4.80;;
62535;SDS011;63050;47.514;18.920;2023-04-24T15:11:56;6.40;;;5.00;;
62535;SDS011;63050;47.514;18.920;2023-04-24T15:16:57;6.50;;;4.80;;
62535;SDS011;63050;47.514;18.920;2023-04-24T15:21:58;5.50;;;5.00;;
62535;SDS011;63050;47.514;18.920;2023-04-24T15:27:01;5.20;;;4.30;;
62535;SDS011;63050;47.514;18.920;2023-04-24T15:32:02;7.30;;;4.80;;
62535;SDS011;63050;47.514;18.920;2023-04-24T15:37:04;4.80;;;4.30;;
62535;SDS011;63050;47.514;18.920;2023-04-24T15:42:06;5.90;;;4.40;;
62535;SDS011;63050;47.514;18.920;2023-04-24T15:47:07;7.50;;;4.80;;
62535;SDS011;63050;47.514;18.920;2023-04-24T15:52:08;4.60;;;4.20;;
62535;SDS011;63050;47.514;18.920;2023-04-24T15:57:11;4.70;;;3.60;;
62535;SDS011;63050;47.514;18.920;2023-04-24T16:02:13;5.40;;;4.00;;
62535;SDS011;63050;47.514;18.920;2023-04-24T16:07:23;5.60;;;3.90;;
62535;SDS011;63050;47.514;18.920;2023-04-24T16:12:25;6.20;;;3.90;;
62535;SDS011;63050;47.514;18.920;2023-04-24T16:17:28;4.40;;;3.80;;
62535;SDS011;63050;47.514;18.920;2023-04-24T16:22:29;5.40;;;3.50;;
62535;SDS011;63050;47.514;18.920;2023-04-24T16:27:31;5.50;;;4.10;;
62535;SDS011;63050;47.514;18.920;2023-04-24T16:32:32;4.20;;;3.80;;
62535;SDS011;63050;47.514;18.920;2023-04-24T16:37:34;5.10;;;4.40;;
62535;SDS011;63050;47.514;18.920;2023-04-24T16:42:36;4.90;;;4.40;;
62535;SDS011;63050;47.514;18.920;2023-04-24T16:47:37;4.20;;;3.80;;
62535;SDS011;63050;47.514;18.920;2023-04-24T16:52:39;5.00;;;4.50;;
62535;SDS011;63050;47.514;18.920;2023-04-24T16:58:00;4.50;;;3.70;;
62535;SDS011;63050;47.514;18.920;2023-04-24T17:03:03;4.70;;;4.20;;
62535;SDS011;63050;47.514;18.920;2023-04-24T17:08:04;4.60;;;3.80;;
62535;SDS011;63050;47.514;18.920;2023-04-24T17:13:06;4.00;;;3.60;;
62535;SDS011;63050;47.514;18.920;2023-04-24T17:18:08;3.60;;;3.30;;
62535;SDS011;63050;47.514;18.920;2023-04-24T17:23:10;4.40;;;3.10;;
62535;SDS011;63050;47.514;18.920;2023-04-24T17:28:24;5.10;;;3.20;;
62535;SDS011;63050;47.514;18.920;2023-04-24T17:33:29;3.50;;;3.20;;
62535;SDS011;63050;47.514;18.920;2023-04-24T17:38:31;3.30;;;3.00;;
62535;SDS011;63050;47.514;18.920;2023-04-24T17:43:32;4.10;;;2.90;;
62535;SDS011;63050;47.514;18.920;2023-04-24T17:48:35;4.30;;;2.80;;
62535;SDS011;63050;47.514;18.920;2023-04-24T17:53:38;4.00;;;2.40;;
62535;SDS011;63050;47.514;18.920;2023-04-24T17:58:41;2.70;;;2.20;;
62535;SDS011;63050;47.514;18.920;2023-04-24T18:03:43;4.00;;;2.50;;
62535;SDS011;63050;47.514;18.920;2023-04-24T18:08:44;3.20;;;2.50;;
62535;SDS011;63050;47.514;18.920;2023-04-24T18:13:45;4.10;;;2.80;;
62535;SDS011;63050;47.514;18.920;2023-04-24T18:18:48;4.00;;;2.60;;
62535;SDS011;63050;47.514;18.920;2023-04-24T18:23:50;2.20;;;1.70;;
62535;SDS011;63050;47.514;18.920;2023-04-24T18:28:52;2.10;;;1.50;;
62535;SDS011;63050;47.514;18.920;2023-04-24T18:33:53;2.90;;;1.60;;
62535;SDS011;63050;47.514;18.920;2023-04-24T18:38:57;2.20;;;1.50;;
62535;SDS011;63050;47.514;18.920;2023-04-24T18:49:19;3.00;;;1.70;;
62535;SDS011;63050;47.514;18.920;2023-04-24T18:54:21;1.90;;;1.40;;
62535;SDS011;63050;47.514;18.920;2023-04-24T18:59:24;2.00;;;1.30;;
62535;SDS011;63050;47.514;18.920;2023-04-24T19:04:25;2.10;;;1.40;;
62535;SDS011;63050;47.514;18.920;2023-04-24T19:09:27;3.40;;;1.40;;
62535;SDS011;63050;47.514;18.920;2023-04-24T19:14:28;3.60;;;1.50;;
62535;SDS011;63050;47.514;18.920;2023-04-24T19:19:30;1.60;;;1.10;;
62535;SDS011;63050;47.514;18.920;2023-04-24T19:24:32;2.50;;;1.20;;
62535;SDS011;63050;47.514;18.920;2023-04-24T19:29:35;2.00;;;1.40;;
62535;SDS011;63050;47.514;18.920;2023-04-24T19:34:36;1.60;;;1.00;;
62535;SDS011;63050;47.514;18.920;2023-04-24T19:39:37;2.10;;;1.40;;
62535;SDS011;63050;47.514;18.920;2023-04-24T19:44:39;2.10;;;1.30;;
62535;SDS011;63050;47.514;18.920;2023-04-24T19:49:41;2.10;;;1.40;;
62535;SDS011;63050;47.514;18.920;2023-04-24T19:54:42;2.30;;;1.70;;
62535;SDS011;63050;47.514;18.920;2023-04-24T19:59:44;2.00;;;1.40;;
62535;SDS011;63050;47.514;18.920;2023-04-24T20:04:46;2.30;;;1.70;;
62535;SDS011;63050;47.514;18.920;2023-04-24T20:09:47;2.40;;;1.60;;
62535;SDS011;63050;47.514;18.920;2023-04-24T20:14:48;2.40;;;2.10;;
62535;SDS011;63050;47.514;18.920;2023-04-24T20:19:49;3.40;;;2.50;;
62535;SDS011;63050;47.514;18.920;2023-04-24T20:24:51;3.30;;;2.60;;
62535;SDS011;63050;47.514;18.920;2023-04-24T20:29:53;2.40;;;2.10;;
62535;SDS011;63050;47.514;18.920;2023-04-24T20:34:55;2.60;;;2.30;;
62535;SDS011;63050;47.514;18.920;2023-04-24T20:39:57;2.20;;;1.80;;
62535;SDS011;63050;47.514;18.920;2023-04-24T20:44:59;2.70;;;2.40;;
62535;SDS011;63050;47.514;18.920;2023-04-24T20:50:01;2.80;;;2.30;;
62535;SDS011;63050;47.514;18.920;2023-04-24T20:55:03;2.50;;;2.10;;
62535;SDS011;63050;47.514;18.920;2023-04-24T21:00:06;3.80;;;2.10;;
62535;SDS011;63050;47.514;18.920;2023-04-24T21:05:08;2.70;;;2.20;;
62535;SDS011;63050;47.514;18.920;2023-04-24T21:10:10;2.80;;;1.90;;
62535;SDS011;63050;47.514;18.920;2023-04-24T21:15:13;2.90;;;2.00;;
62535;SDS011;63050;47.514;18.920;2023-04-24T21:20:15;4.40;;;2.10;;
62535;SDS011;63050;47.514;18.920;2023-04-24T21:25:16;2.20;;;1.90;;
62535;SDS011;63050;47.514;18.920;2023-04-24T21:30:17;2.00;;;1.30;;
62535;SDS011;63050;47.514;18.920;2023-04-24T21:35:20;3.10;;;1.50;;
62535;SDS011;63050;47.514;18.920;2023-04-24T21:40:21;2.70;;;1.20;;
62535;SDS011;63050;47.514;18.920;2023-04-24T21:45:23;1.80;;;0.90;;
62535;SDS011;63050;47.514;18.920;2023-04-24T21:50:24;2.10;;;1.00;;
62535;SDS011;63050;47.514;18.920;2023-04-24T21:55:25;1.70;;;1.10;;
62535;SDS011;63050;47.514;18.920;2023-04-24T22:00:27;3.50;;;1.10;;
62535;SDS011;63050;47.514;18.920;2023-04-24T22:05:30;2.20;;;1.10;;
62535;SDS011;63050;47.514;18.920;2023-04-24T22:10:31;1.70;;;1.00;;
62535;SDS011;63050;47.514;18.920;2023-04-24T22:15:33;2.40;;;1.10;;
62535;SDS011;63050;47.514;18.920;2023-04-24T22:20:34;1.70;;;1.00;;
62535;SDS011;63050;47.514;18.920;2023-04-24T22:25:35;2.60;;;1.40;;
62535;SDS011;63050;47.514;18.920;2023-04-24T22:30:37;2.10;;;1.40;;
62535;SDS011;63050;47.514;18.920;2023-04-24T22:35:39;2.40;;;1.50;;
62535;SDS011;63050;47.514;18.920;2023-04-24T22:40:40;2.20;;;1.50;;
62535;SDS011;63050;47.514;18.920;2023-04-24T22:45:42;3.80;;;1.60;;
62535;SDS011;63050;47.514;18.920;2023-04-24T22:50:44;2.20;;;1.30;;
62535;SDS011;63050;47.514;18.920;2023-04-24T22:55:46;2.90;;;1.40;;
62535;SDS011;63050;47.514;18.920;2023-04-24T23:00:48;1.70;;;1.10;;
62535;SDS011;63050;47.514;18.920;2023-04-24T23:05:49;1.60;;;1.10;;
62535;SDS011;63050;47.514;18.920;2023-04-24T23:10:50;2.10;;;1.10;;
62535;SDS011;63050;47.514;18.920;2023-04-24T23:15:52;2.80;;;1.50;;
62535;SDS011;63050;47.514;18.920;2023-04-24T23:20:54;2.80;;;1.20;;
62535;SDS011;63050;47.514;18.920;2023-04-24T23:25:56;2.00;;;1.30;;
62535;SDS011;63050;47.514;18.920;2023-04-24T23:30:59;2.50;;;1.40;;
62535;SDS011;63050;47.514;18.920;2023-04-24T23:36:01;1.90;;;1.20;;
62535;SDS011;63050;47.514;18.920;2023-04-24T23:41:03;1.80;;;1.20;;
62535;SDS011;63050;47.514;18.920;2023-04-24T23:46:04;2.20;;;1.10;;
62535;SDS011;63050;47.514;18.920;2023-04-24T23:51:07;1.60;;;1.10;;
62535;SDS011;63050;47.514;18.920;2023-04-24T23:56:08;1.90;;;1.20;;
